sensor_id;sensor_type;location;lat;lon;timestamp;pressure;altitude;pressure_sealevel;temperature;humidity
62680;BME280;68213;40.528;44.712;2023-03-04T00:00:56;80196.53;;;2.54;81.94
62680;BME280;68213;40.528;44.712;2023-03-04T00:01:56;80189.81;;;2.51;81.93
62680;BME280;68213;40.528;44.712;2023-03-04T00:02:57;80193.63;;;2.50;82.26
62680;BME280;68213;40.528;44.712;2023-03-04T00:03:58;80186.94;;;2.47;81.99
62680;BME280;68213;40.528;44.712;2023-03-04T00:04:58;80156.34;;;2.46;82.16
62680;BME280;68213;40.528;44.712;2023-03-04T00:05:59;80183.81;;;2.49;82.13
62680;BME280;68213;40.528;44.712;2023-03-04T00:07:00;80188.00;;;2.44;82.02
62680;BME280;68213;40.528;44.712;2023-03-04T00:08:00;80209.59;;;2.47;82.10
62680;BME280;68213;40.528;44.712;2023-03-04T00:09:01;80194.72;;;2.47;82.03
62680;BME280;68213;40.528;44.712;2023-03-04T00:10:04;80206.16;;;2.44;81.98
62680;BME280;68213;40.528;44.712;2023-03-04T00:11:05;80202.50;;;2.47;82.00
62680;BME280;68213;40.528;44.712;2023-03-04T00:12:06;80191.59;;;2.49;81.84
62680;BME280;68213;40.528;44.712;2023-03-04T00:13:07;80187.09;;;2.49;81.96
62680;BME280;68213;40.528;44.712;2023-03-04T00:14:08;80178.06;;;2.50;81.93
62680;BME280;68213;40.528;44.712;2023-03-04T00:15:09;80210.56;;;2.51;81.58
62680;BME280;68213;40.528;44.712;2023-03-04T00:16:10;80186.84;;;2.55;81.08
62680;BME280;68213;40.528;44.712;2023-03-04T00:17:10;80212.94;;;2.57;81.10
62680;BME280;68213;40.528;44.712;2023-03-04T00:18:11;80198.03;;;2.58;80.86
62680;BME280;68213;40.528;44.712;2023-03-04T00:19:12;80197.66;;;2.61;80.96
62680;BME280;68213;40.528;44.712;2023-03-04T00:20:13;80201.91;;;2.66;80.44
62680;BME280;68213;40.528;44.712;2023-03-04T00:21:14;80198.09;;;2.67;80.38
62680;BME280;68213;40.528;44.712;2023-03-04T00:22:14;80200.25;;;2.61;80.32
62680;BME280;68213;40.528;44.712;2023-03-04T00:23:15;80192.06;;;2.65;80.63
62680;BME280;68213;40.528;44.712;2023-03-04T00:24:16;80203.44;;;2.69;80.33
62680;BME280;68213;40.528;44.712;2023-03-04T00:25:17;80186.44;;;2.59;80.24
62680;BME280;68213;40.528;44.712;2023-03-04T00:26:17;80201.66;;;2.72;80.09
62680;BME280;68213;40.528;44.712;2023-03-04T00:27:18;80197.84;;;2.73;80.18
62680;BME280;68213;40.528;44.712;2023-03-04T00:28:19;80189.81;;;2.51;79.67
62680;BME280;68213;40.528;44.712;2023-03-04T00:30:36;80200.41;;;2.63;80.37
62680;BME280;68213;40.528;44.712;2023-03-04T00:31:36;80201.38;;;2.68;80.33
62680;BME280;68213;40.528;44.712;2023-03-04T00:32:37;80180.91;;;2.72;79.84
62680;BME280;68213;40.528;44.712;2023-03-04T00:33:38;80177.78;;;2.74;79.49
62680;BME280;68213;40.528;44.712;2023-03-04T00:34:39;80196.06;;;2.76;79.20
62680;BME280;68213;40.528;44.712;2023-03-04T00:35:40;80200.88;;;2.79;79.67
62680;BME280;68213;40.528;44.712;2023-03-04T00:36:41;80189.66;;;2.77;79.61
62680;BME280;68213;40.528;44.712;2023-03-04T00:37:44;80191.03;;;2.78;79.06
62680;BME280;68213;40.528;44.712;2023-03-04T00:38:44;80203.47;;;2.79;78.47
62680;BME280;68213;40.528;44.712;2023-03-04T00:39:45;80193.09;;;2.79;78.89
62680;BME280;68213;40.528;44.712;2023-03-04T00:40:45;80179.44;;;2.79;78.93
62680;BME280;68213;40.528;44.712;2023-03-04T00:41:46;80196.94;;;2.78;79.20
62680;BME280;68213;40.528;44.712;2023-03-04T00:42:47;80196.38;;;2.80;78.97
62680;BME280;68213;40.528;44.712;2023-03-04T00:43:47;80196.38;;;2.80;79.08
62680;BME280;68213;40.528;44.712;2023-03-04T00:44:48;80189.13;;;2.78;78.97
62680;BME280;68213;40.528;44.712;2023-03-04T00:45:49;80187.06;;;2.77;79.08
62680;BME280;68213;40.528;44.712;2023-03-04T00:46:49;80188.59;;;2.80;79.10
62680;BME280;68213;40.528;44.712;2023-03-04T00:47:50;80169.16;;;2.71;78.68
62680;BME280;68213;40.528;44.712;2023-03-04T00:48:51;80181.63;;;2.82;78.60
62680;BME280;68213;40.528;44.712;2023-03-04T00:49:51;80186.28;;;2.84;78.42
62680;BME280;68213;40.528;44.712;2023-03-04T00:50:52;80193.22;;;2.81;78.18
62680;BME280;68213;40.528;44.712;2023-03-04T00:51:53;80181.78;;;2.84;78.24
62680;BME280;68213;40.528;44.712;2023-03-04T00:52:54;80191.34;;;2.82;78.06
62680;BME280;68213;40.528;44.712;2023-03-04T00:53:54;80194.59;;;2.82;78.09
62680;BME280;68213;40.528;44.712;2023-03-04T00:54:55;80185.03;;;2.85;77.61
62680;BME280;68213;40.528;44.712;2023-03-04T00:55:55;80189.84;;;2.89;77.56
62680;BME280;68213;40.528;44.712;2023-03-04T00:56:56;80192.44;;;2.89;77.72
62680;BME280;68213;40.528;44.712;2023-03-04T00:57:57;80179.16;;;2.75;77.79
62680;BME280;68213;40.528;44.712;2023-03-04T00:58:58;80196.25;;;2.88;78.06
62680;BME280;68213;40.528;44.712;2023-03-04T00:59:58;80196.25;;;2.88;78.00
62680;BME280;68213;40.528;44.712;2023-03-04T01:00:59;80191.38;;;2.92;77.25
62680;BME280;68213;40.528;44.712;2023-03-04T01:01:59;80181.78;;;2.84;77.52
62680;BME280;68213;40.528;44.712;2023-03-04T01:03:00;80198.47;;;2.91;77.71
62680;BME280;68213;40.528;44.712;2023-03-04T01:04:01;80189.59;;;2.94;77.22
62680;BME280;68213;40.528;44.712;2023-03-04T01:05:02;80199.00;;;2.90;77.68
62680;BME280;68213;40.528;44.712;2023-03-04T01:06:04;80195.75;;;2.89;77.65
62680;BME280;68213;40.528;44.712;2023-03-04T01:07:04;80195.97;;;2.83;77.89
62680;BME280;68213;40.528;44.712;2023-03-04T01:08:07;80196.53;;;2.82;77.94
62680;BME280;68213;40.528;44.712;2023-03-04T01:09:08;80199.66;;;2.80;78.11
62680;BME280;68213;40.528;44.712;2023-03-04T01:10:10;80197.22;;;2.82;78.07
62680;BME280;68213;40.528;44.712;2023-03-04T01:11:12;80194.19;;;2.76;77.68
62680;BME280;68213;40.528;44.712;2023-03-04T01:12:13;80196.66;;;2.84;77.49
62680;BME280;68213;40.528;44.712;2023-03-04T01:13:14;80213.09;;;2.87;77.13
62680;BME280;68213;40.528;44.712;2023-03-04T01:14:15;80196.53;;;2.82;77.59
62680;BME280;68213;40.528;44.712;2023-03-04T01:15:15;80195.44;;;2.85;77.68
62680;BME280;68213;40.528;44.712;2023-03-04T01:16:16;80200.78;;;2.87;77.64
62680;BME280;68213;40.528;44.712;2023-03-04T01:17:16;80199.81;;;2.82;77.31
62680;BME280;68213;40.528;44.712;2023-03-04T01:18:17;80194.75;;;2.84;77.58
62680;BME280;68213;40.528;44.712;2023-03-04T01:19:18;80198.72;;;2.85;76.58
62680;BME280;68213;40.528;44.712;2023-03-04T01:20:19;80201.31;;;2.85;76.82
62680;BME280;68213;40.528;44.712;2023-03-04T01:21:20;80202.16;;;2.88;76.93
62680;BME280;68213;40.528;44.712;2023-03-04T01:22:21;80176.09;;;2.68;76.83
62680;BME280;68213;40.528;44.712;2023-03-04T01:23:21;80205.81;;;2.85;76.82
62680;BME280;68213;40.528;44.712;2023-03-04T01:24:22;80203.38;;;2.87;76.81
62680;BME280;68213;40.528;44.712;2023-03-04T01:25:23;80195.19;;;2.91;76.21
62680;BME280;68213;40.528;44.712;2023-03-04T01:26:26;80209.97;;;2.98;76.67
62680;BME280;68213;40.528;44.712;2023-03-04T01:27:27;80215.56;;;2.94;75.98
62680;BME280;68213;40.528;44.712;2023-03-04T01:28:28;80206.56;;;2.95;76.35
62680;BME280;68213;40.528;44.712;2023-03-04T01:29:28;80201.91;;;2.94;76.65
62680;BME280;68213;40.528;44.712;2023-03-04T01:30:29;80200.66;;;2.95;76.72
62680;BME280;68213;40.528;44.712;2023-03-04T01:31:32;80207.22;;;2.96;76.28
62680;BME280;68213;40.528;44.712;2023-03-04T01:32:33;80200.38;;;2.91;76.39
62680;BME280;68213;40.528;44.712;2023-03-04T01:34:41;80198.38;;;2.99;76.23
62680;BME280;68213;40.528;44.712;2023-03-04T01:35:42;80217.22;;;2.99;76.36
62680;BME280;68213;40.528;44.712;2023-03-04T01:36:43;80204.78;;;2.98;75.78
62680;BME280;68213;40.528;44.712;2023-03-04T01:37:46;80215.84;;;2.98;75.90
62680;BME280;68213;40.528;44.712;2023-03-04T01:38:46;80200.97;;;2.99;75.68
62680;BME280;68213;40.528;44.712;2023-03-04T01:39:47;80192.06;;;3.02;75.23
62680;BME280;68213;40.528;44.712;2023-03-04T01:40:48;80208.06;;;2.98;75.58
62680;BME280;68213;40.528;44.712;2023-03-04T01:41:49;80206.16;;;2.99;75.70
62680;BME280;68213;40.528;44.712;2023-03-04T01:42:50;80205.47;;;2.98;75.67
62680;BME280;68213;40.528;44.712;2023-03-04T01:43:50;80203.72;;;3.01;75.86
62680;BME280;68213;40.528;44.712;2023-03-04T01:44:51;80202.34;;;3.00;75.99
62680;BME280;68213;40.528;44.712;2023-03-04T01:45:54;80194.00;;;3.01;74.94
62680;BME280;68213;40.528;44.712;2023-03-04T01:46:55;80190.19;;;3.03;75.28
62680;BME280;68213;40.528;44.712;2023-03-04T01:47:56;80211.09;;;3.05;75.42
62680;BME280;68213;40.528;44.712;2023-03-04T01:48:57;80202.75;;;3.06;75.17
62680;BME280;68213;40.528;44.712;2023-03-04T01:50:00;80198.78;;;3.05;75.07
62680;BME280;68213;40.528;44.712;2023-03-04T01:51:05;80193.59;;;3.05;75.64
62680;BME280;68213;40.528;44.712;2023-03-04T01:52:13;80187.72;;;3.05;75.47
62680;BME280;68213;40.528;44.712;2023-03-04T01:53:22;80200.56;;;3.03;74.56
62680;BME280;68213;40.528;44.712;2023-03-04T01:54:23;80194.81;;;3.04;74.55
62680;BME280;68213;40.528;44.712;2023-03-04T01:55:23;80195.53;;;3.05;74.72
62680;BME280;68213;40.528;44.712;2023-03-04T01:56:29;80190.31;;;3.05;74.75
62680;BME280;68213;40.528;44.712;2023-03-04T01:57:34;80181.00;;;3.01;75.09
62680;BME280;68213;40.528;44.712;2023-03-04T01:58:34;80183.22;;;3.05;74.96
62680;BME280;68213;40.528;44.712;2023-03-04T01:59:35;80191.69;;;3.06;73.80
62680;BME280;68213;40.528;44.712;2023-03-04T02:00:36;80200.84;;;3.07;74.63
62680;BME280;68213;40.528;44.712;2023-03-04T02:01:38;80176.06;;;2.96;74.72
62680;BME280;68213;40.528;44.712;2023-03-04T02:02:39;80177.34;;;3.05;74.41
62680;BME280;68213;40.528;44.712;2023-03-04T02:03:40;80186.34;;;3.04;74.45
62680;BME280;68213;40.528;44.712;2023-03-04T02:04:41;80178.03;;;3.05;74.25
62680;BME280;68213;40.528;44.712;2023-03-04T02:05:45;80179.38;;;3.06;74.43
62680;BME280;68213;40.528;44.712;2023-03-04T02:06:49;80186.63;;;3.08;74.49
62680;BME280;68213;40.528;44.712;2023-03-04T02:07:51;80196.34;;;3.07;74.27
62680;BME280;68213;40.528;44.712;2023-03-04T02:08:53;80208.09;;;3.08;74.12
62680;BME280;68213;40.528;44.712;2023-03-04T02:09:54;80192.66;;;3.10;73.52
62680;BME280;68213;40.528;44.712;2023-03-04T02:10:54;80196.91;;;3.15;73.31
62680;BME280;68213;40.528;44.712;2023-03-04T02:11:56;80187.88;;;3.16;73.30
62680;BME280;68213;40.528;44.712;2023-03-04T02:12:57;80187.22;;;3.16;73.49
62680;BME280;68213;40.528;44.712;2023-03-04T02:13:59;80176.50;;;3.02;73.54
62680;BME280;68213;40.528;44.712;2023-03-04T02:14:59;80198.41;;;3.18;73.77
62680;BME280;68213;40.528;44.712;2023-03-04T02:16:00;80182.69;;;3.16;73.53
62680;BME280;68213;40.528;44.712;2023-03-04T02:17:01;80185.16;;;3.14;73.75
62680;BME280;68213;40.528;44.712;2023-03-04T02:18:03;80188.59;;;3.17;73.69
62680;BME280;68213;40.528;44.712;2023-03-04T02:20:34;80189.41;;;3.20;72.85
62680;BME280;68213;40.528;44.712;2023-03-04T02:21:38;80201.03;;;3.18;73.21
62680;BME280;68213;40.528;44.712;2023-03-04T02:22:46;80178.28;;;3.09;72.70
62680;BME280;68213;40.528;44.712;2023-03-04T02:25:04;80199.94;;;3.22;72.60
62680;BME280;68213;40.528;44.712;2023-03-04T02:26:22;80192.69;;;3.20;72.14
62680;BME280;68213;40.528;44.712;2023-03-04T02:27:23;80190.38;;;3.24;72.42
62680;BME280;68213;40.528;44.712;2023-03-04T02:28:23;80185.19;;;3.24;72.83
62680;BME280;68213;40.528;44.712;2023-03-04T02:29:24;80191.19;;;3.27;72.95
62680;BME280;68213;40.528;44.712;2023-03-04T02:30:25;80177.00;;;3.28;72.31
62680;BME280;68213;40.528;44.712;2023-03-04T02:31:37;80186.97;;;3.31;72.32
62680;BME280;68213;40.528;44.712;2023-03-04T02:32:40;80198.56;;;3.21;72.36
62680;BME280;68213;40.528;44.712;2023-03-04T02:33:41;80188.19;;;3.21;71.47
62680;BME280;68213;40.528;44.712;2023-03-04T02:34:47;80194.03;;;3.11;71.70
62680;BME280;68213;40.528;44.712;2023-03-04T02:35:48;80180.38;;;3.21;72.45
62680;BME280;68213;40.528;44.712;2023-03-04T02:36:51;80198.16;;;3.14;72.49
62680;BME280;68213;40.528;44.712;2023-03-04T02:37:52;80203.75;;;3.21;71.57
62680;BME280;68213;40.528;44.712;2023-03-04T02:38:54;80194.75;;;3.22;71.82
62680;BME280;68213;40.528;44.712;2023-03-04T02:39:55;80202.53;;;3.22;71.31
62680;BME280;68213;40.528;44.712;2023-03-04T02:40:56;80209.13;;;3.23;71.66
62680;BME280;68213;40.528;44.712;2023-03-04T02:41:58;80243.94;;;3.20;71.52
62680;BME280;68213;40.528;44.712;2023-03-04T02:43:00;80199.78;;;3.10;71.79
62680;BME280;68213;40.528;44.712;2023-03-04T02:44:01;80205.13;;;3.22;71.81
62680;BME280;68213;40.528;44.712;2023-03-04T02:45:02;80177.84;;;2.93;72.04
62680;BME280;68213;40.528;44.712;2023-03-04T02:46:04;80220.03;;;3.21;72.32
62680;BME280;68213;40.528;44.712;2023-03-04T02:47:07;80217.03;;;3.25;72.14
62680;BME280;68213;40.528;44.712;2023-03-04T02:48:09;80220.41;;;3.17;71.71
62680;BME280;68213;40.528;44.712;2023-03-04T02:49:10;80227.28;;;3.23;71.61
62680;BME280;68213;40.528;44.712;2023-03-04T02:50:11;80241.50;;;3.22;71.47
62680;BME280;68213;40.528;44.712;2023-03-04T02:51:14;80226.75;;;3.24;71.25
62680;BME280;68213;40.528;44.712;2023-03-04T02:52:19;80214.88;;;3.31;71.58
62680;BME280;68213;40.528;44.712;2023-03-04T02:53:21;80223.75;;;3.28;71.58
62680;BME280;68213;40.528;44.712;2023-03-04T02:54:22;80221.81;;;3.28;71.55
62680;BME280;68213;40.528;44.712;2023-03-04T02:55:23;80221.16;;;3.28;71.38
62680;BME280;68213;40.528;44.712;2023-03-04T02:56:24;80220.19;;;3.23;71.98
62680;BME280;68213;40.528;44.712;2023-03-04T02:57:25;80203.38;;;3.24;71.66
62680;BME280;68213;40.528;44.712;2023-03-04T02:58:25;80196.63;;;3.11;71.35
62680;BME280;68213;40.528;44.712;2023-03-04T02:59:26;80216.78;;;3.30;71.46
62680;BME280;68213;40.528;44.712;2023-03-04T03:00:28;80208.31;;;3.30;71.15
62680;BME280;68213;40.528;44.712;2023-03-04T03:01:28;80193.94;;;3.29;71.28
62680;BME280;68213;40.528;44.712;2023-03-04T03:02:29;80216.38;;;3.34;71.17
62680;BME280;68213;40.528;44.712;2023-03-04T03:03:30;80218.44;;;3.36;70.77
62680;BME280;68213;40.528;44.712;2023-03-04T03:04:30;80217.91;;;3.37;70.14
62680;BME280;68213;40.528;44.712;2023-03-04T03:05:33;80209.00;;;3.40;70.43
62680;BME280;68213;40.528;44.712;2023-03-04T03:06:34;80203.81;;;3.40;70.56
62680;BME280;68213;40.528;44.712;2023-03-04T03:07:38;80193.81;;;3.37;70.50
62680;BME280;68213;40.528;44.712;2023-03-04T03:08:39;80214.50;;;3.44;70.06
62680;BME280;68213;40.528;44.712;2023-03-04T03:09:39;80205.59;;;3.47;70.08
62680;BME280;68213;40.528;44.712;2023-03-04T03:10:40;80205.59;;;3.47;70.52
62680;BME280;68213;40.528;44.712;2023-03-04T03:11:40;80188.78;;;3.48;70.42
62680;BME280;68213;40.528;44.712;2023-03-04T03:12:41;80197.81;;;3.47;70.47
62680;BME280;68213;40.528;44.712;2023-03-04T03:13:42;80201.78;;;3.48;70.10
62680;BME280;68213;40.528;44.712;2023-03-04T03:14:42;80176.19;;;3.45;70.00
62680;BME280;68213;40.528;44.712;2023-03-04T03:15:43;80198.34;;;3.46;69.09
62680;BME280;68213;40.528;44.712;2023-03-04T03:16:44;80185.09;;;3.52;68.75
62680;BME280;68213;40.528;44.712;2023-03-04T03:17:44;80195.66;;;3.54;68.77
62680;BME280;68213;40.528;44.712;2023-03-04T03:18:45;80173.88;;;3.49;69.25
62680;BME280;68213;40.528;44.712;2023-03-04T03:19:46;80192.91;;;3.52;68.99
62680;BME280;68213;40.528;44.712;2023-03-04T03:20:46;80199.59;;;3.55;69.32
62680;BME280;68213;40.528;44.712;2023-03-04T03:21:49;80177.59;;;3.56;69.62
62680;BME280;68213;40.528;44.712;2023-03-04T03:22:52;80179.50;;;3.45;70.03
62680;BME280;68213;40.528;44.712;2023-03-04T03:23:52;80205.06;;;3.49;69.35
62680;BME280;68213;40.528;44.712;2023-03-04T03:24:53;80189.59;;;3.51;69.69
62680;BME280;68213;40.528;44.712;2023-03-04T03:25:54;80182.09;;;3.45;69.83
62680;BME280;68213;40.528;44.712;2023-03-04T03:26:54;80200.28;;;3.45;70.02
62680;BME280;68213;40.528;44.712;2023-03-04T03:27:55;80191.38;;;3.48;70.12
62680;BME280;68213;40.528;44.712;2023-03-04T03:28:56;80183.31;;;3.44;70.52
62680;BME280;68213;40.528;44.712;2023-03-04T03:29:57;80189.59;;;3.41;70.52
62680;BME280;68213;40.528;44.712;2023-03-04T03:30:57;80202.03;;;3.43;70.77
62680;BME280;68213;40.528;44.712;2023-03-04T03:31:58;80205.19;;;3.41;70.89
62680;BME280;68213;40.528;44.712;2023-03-04T03:32:59;80208.47;;;3.42;70.84
62680;BME280;68213;40.528;44.712;2023-03-04T03:33:59;80193.00;;;3.44;70.50
62680;BME280;68213;40.528;44.712;2023-03-04T03:35:00;80203.81;;;3.40;70.28
62680;BME280;68213;40.528;44.712;2023-03-04T03:36:01;80198.34;;;3.36;70.74
62680;BME280;68213;40.528;44.712;2023-03-04T03:37:02;80195.66;;;3.16;71.13
62680;BME280;68213;40.528;44.712;2023-03-04T03:38:03;80208.72;;;3.36;71.13
62680;BME280;68213;40.528;44.712;2023-03-04T03:39:03;80206.28;;;3.38;70.83
62680;BME280;68213;40.528;44.712;2023-03-04T03:40:07;80203.13;;;3.40;70.74
62680;BME280;68213;40.528;44.712;2023-03-04T03:41:08;80207.09;;;3.41;70.41
62680;BME280;68213;40.528;44.712;2023-03-04T03:42:08;80203.13;;;3.40;70.01
62680;BME280;68213;40.528;44.712;2023-03-04T03:43:09;80193.41;;;3.40;70.37
62680;BME280;68213;40.528;44.712;2023-03-04T03:44:10;80219.41;;;3.40;70.52
62680;BME280;68213;40.528;44.712;2023-03-04T03:45:11;80207.34;;;3.35;70.78
62680;BME280;68213;40.528;44.712;2023-03-04T03:46:12;80196.28;;;3.35;70.89
62680;BME280;68213;40.528;44.712;2023-03-04T03:47:13;80196.16;;;3.32;70.19
62680;BME280;68213;40.528;44.712;2023-03-04T03:48:13;80225.69;;;3.37;70.17
62680;BME280;68213;40.528;44.712;2023-03-04T03:49:14;80237.00;;;3.32;70.14
62680;BME280;68213;40.528;44.712;2023-03-04T03:50:16;80205.69;;;3.20;69.86
62680;BME280;68213;40.528;44.712;2023-03-04T03:51:17;80215.72;;;3.33;70.26
62680;BME280;68213;40.528;44.712;2023-03-04T03:52:17;80225.28;;;3.31;70.44
62680;BME280;68213;40.528;44.712;2023-03-04T03:53:18;80215.81;;;3.26;70.02
62680;BME280;68213;40.528;44.712;2023-03-04T03:54:19;80224.31;;;3.36;70.01
62680;BME280;68213;40.528;44.712;2023-03-04T03:55:20;80216.38;;;3.34;70.07
62680;BME280;68213;40.528;44.712;2023-03-04T03:56:21;80217.06;;;3.35;70.04
62680;BME280;68213;40.528;44.712;2023-03-04T03:57:22;80221.56;;;3.34;69.92
62680;BME280;68213;40.528;44.712;2023-03-04T03:58:23;80217.47;;;3.31;69.84
62680;BME280;68213;40.528;44.712;2023-03-04T03:59:26;80223.88;;;3.20;70.39
62680;BME280;68213;40.528;44.712;2023-03-04T04:00:26;80231.00;;;3.29;70.05
62680;BME280;68213;40.528;44.712;2023-03-04T04:01:27;80208.16;;;3.28;70.35
62680;BME280;68213;40.528;44.712;2023-03-04T04:02:27;80226.91;;;3.26;70.28
62680;BME280;68213;40.528;44.712;2023-03-04T04:03:28;80208.31;;;3.30;69.85
62680;BME280;68213;40.528;44.712;2023-03-04T04:04:29;80212.13;;;3.29;69.49
62680;BME280;68213;40.528;44.712;2023-03-04T04:05:30;80215.13;;;3.25;69.50
62680;BME280;68213;40.528;44.712;2023-03-04T04:06:30;80227.56;;;3.27;69.56
62680;BME280;68213;40.528;44.712;2023-03-04T04:07:31;80216.63;;;3.28;69.59
62680;BME280;68213;40.528;44.712;2023-03-04T04:08:31;80199.16;;;3.29;69.17
62680;BME280;68213;40.528;44.712;2023-03-04T04:09:37;80215.41;;;3.29;69.93
62680;BME280;68213;40.528;44.712;2023-03-04T04:10:39;80217.31;;;3.29;69.71
62680;BME280;68213;40.528;44.712;2023-03-04T04:11:41;80214.34;;;3.32;69.16
62680;BME280;68213;40.528;44.712;2023-03-04T04:12:42;80209.13;;;3.32;69.54
62680;BME280;68213;40.528;44.712;2023-03-04T04:13:43;80241.94;;;3.28;69.37
62680;BME280;68213;40.528;44.712;2023-03-04T04:14:44;80240.72;;;3.29;69.02
62680;BME280;68213;40.528;44.712;2023-03-04T04:15:44;80218.69;;;3.30;68.89
62680;BME280;68213;40.528;44.712;2023-03-04T04:16:45;80230.47;;;3.31;68.71
62680;BME280;68213;40.528;44.712;2023-03-04T04:17:45;80255.19;;;3.32;68.95
62680;BME280;68213;40.528;44.712;2023-03-04T04:18:46;80237.00;;;3.32;68.36
62680;BME280;68213;40.528;44.712;2023-03-04T04:19:47;80224.03;;;3.32;68.83
62680;BME280;68213;40.528;44.712;2023-03-04T04:20:47;80224.88;;;3.35;68.99
62680;BME280;68213;40.528;44.712;2023-03-04T04:21:48;80234.00;;;3.36;68.80
62680;BME280;68213;40.528;44.712;2023-03-04T04:22:50;80237.31;;;3.36;68.82
62680;BME280;68213;40.528;44.712;2023-03-04T04:23:53;80207.63;;;3.39;68.65
62680;BME280;68213;40.528;44.712;2023-03-04T04:24:54;80214.19;;;3.40;69.20
62680;BME280;68213;40.528;44.712;2023-03-04T04:25:55;80223.91;;;3.40;69.27
62680;BME280;68213;40.528;44.712;2023-03-04T04:26:56;80219.00;;;3.44;69.03
62680;BME280;68213;40.528;44.712;2023-03-04T04:27:59;80220.91;;;3.43;68.94
62680;BME280;68213;40.528;44.712;2023-03-04T04:29:00;80211.34;;;3.46;68.67
62680;BME280;68213;40.528;44.712;2023-03-04T04:30:04;80219.28;;;3.48;68.79
62680;BME280;68213;40.528;44.712;2023-03-04T04:31:08;80194.09;;;3.31;68.47
62680;BME280;68213;40.528;44.712;2023-03-04T04:32:09;80209.88;;;3.53;68.72
62680;BME280;68213;40.528;44.712;2023-03-04T04:33:12;80224.09;;;3.52;68.45
62680;BME280;68213;40.528;44.712;2023-03-04T04:34:13;80224.09;;;3.52;67.81
62680;BME280;68213;40.528;44.712;2023-03-04T04:35:13;80232.69;;;3.44;68.13
62680;BME280;68213;40.528;44.712;2023-03-04T04:36:14;80213.00;;;3.51;67.72
62680;BME280;68213;40.528;44.712;2023-03-04T04:37:15;80221.63;;;3.54;68.18
62680;BME280;68213;40.528;44.712;2023-03-04T04:38:16;80208.78;;;3.56;67.90
62680;BME280;68213;40.528;44.712;2023-03-04T04:39:17;80209.47;;;3.56;67.88
62680;BME280;68213;40.528;44.712;2023-03-04T04:40:18;80194.78;;;3.41;68.42
62680;BME280;68213;40.528;44.712;2023-03-04T04:41:21;80210.44;;;3.61;68.34
62680;BME280;68213;40.528;44.712;2023-03-04T04:42:23;80198.25;;;3.63;67.90
62680;BME280;68213;40.528;44.712;2023-03-04T04:43:24;80207.03;;;3.68;67.76
62680;BME280;68213;40.528;44.712;2023-03-04T04:44:25;80218.50;;;3.65;67.31
62680;BME280;68213;40.528;44.712;2023-03-04T04:45:25;80219.88;;;3.66;67.72
62680;BME280;68213;40.528;44.712;2023-03-04T04:46:26;80206.47;;;3.70;67.40
62680;BME280;68213;40.528;44.712;2023-03-04T04:47:27;80210.31;;;3.69;67.63
62680;BME280;68213;40.528;44.712;2023-03-04T04:48:27;80191.13;;;3.64;66.99
62680;BME280;68213;40.528;44.712;2023-03-04T04:49:28;80214.13;;;3.68;67.38
62680;BME280;68213;40.528;44.712;2023-03-04T04:50:28;80222.91;;;3.72;67.12
62680;BME280;68213;40.528;44.712;2023-03-04T04:51:29;80211.41;;;3.75;67.22
62680;BME280;68213;40.528;44.712;2023-03-04T04:52:30;80215.38;;;3.76;66.78
62680;BME280;68213;40.528;44.712;2023-03-04T04:53:34;80199.09;;;3.76;67.36
62680;BME280;68213;40.528;44.712;2023-03-04T04:54:35;80216.06;;;3.77;67.24
62680;BME280;68213;40.528;44.712;2023-03-04T04:55:36;80219.22;;;3.75;67.23
62680;BME280;68213;40.528;44.712;2023-03-04T04:56:36;80221.66;;;3.73;67.71
62680;BME280;68213;40.528;44.712;2023-03-04T04:57:37;80211.94;;;3.74;67.71
62680;BME280;68213;40.528;44.712;2023-03-04T04:58:38;80207.16;;;3.70;67.43
62680;BME280;68213;40.528;44.712;2023-03-04T04:59:39;80252.72;;;3.71;67.55
62680;BME280;68213;40.528;44.712;2023-03-04T05:00:42;80228.66;;;3.71;68.02
62680;BME280;68213;40.528;44.712;2023-03-04T05:01:43;80218.91;;;3.71;67.94
62680;BME280;68213;40.528;44.712;2023-03-04T05:02:43;80180.47;;;3.70;67.99
62680;BME280;68213;40.528;44.712;2023-03-04T05:03:44;80203.56;;;3.56;67.39
62680;BME280;68213;40.528;44.712;2023-03-04T05:04:45;80224.13;;;3.71;67.35
62680;BME280;68213;40.528;44.712;2023-03-04T05:05:48;80248.75;;;3.70;67.21
62680;BME280;68213;40.528;44.712;2023-03-04T05:06:51;80248.06;;;3.70;67.46
62680;BME280;68213;40.528;44.712;2023-03-04T05:07:51;80253.94;;;3.70;67.10
62680;BME280;68213;40.528;44.712;2023-03-04T05:08:52;80239.56;;;3.69;67.68
62680;BME280;68213;40.528;44.712;2023-03-04T05:09:53;80236.84;;;3.67;67.77
62680;BME280;68213;40.528;44.712;2023-03-04T05:10:53;80236.97;;;3.69;67.26
62680;BME280;68213;40.528;44.712;2023-03-04T05:11:54;80248.91;;;3.72;67.29
62680;BME280;68213;40.528;44.712;2023-03-04T05:12:55;80263.53;;;3.68;66.55
62680;BME280;68213;40.528;44.712;2023-03-04T05:13:55;80248.75;;;3.70;66.62
62680;BME280;68213;40.528;44.712;2023-03-04T05:14:56;80236.56;;;3.63;66.84
62680;BME280;68213;40.528;44.712;2023-03-04T05:15:57;80237.38;;;3.65;67.28
62680;BME280;68213;40.528;44.712;2023-03-04T05:16:57;80241.91;;;3.65;67.19
62680;BME280;68213;40.528;44.712;2023-03-04T05:17:58;80248.75;;;3.70;67.31
62680;BME280;68213;40.528;44.712;2023-03-04T05:18:59;80259.28;;;3.72;67.13
62680;BME280;68213;40.528;44.712;2023-03-04T05:19:59;80259.28;;;3.72;67.22
62680;BME280;68213;40.528;44.712;2023-03-04T05:21:02;80231.91;;;3.71;67.44
62680;BME280;68213;40.528;44.712;2023-03-04T05:22:03;80251.22;;;3.68;67.21
62680;BME280;68213;40.528;44.712;2023-03-04T05:23:04;80254.50;;;3.69;67.47
62680;BME280;68213;40.528;44.712;2023-03-04T05:24:05;80258.31;;;3.68;67.41
62680;BME280;68213;40.528;44.712;2023-03-04T05:25:05;80249.84;;;3.67;67.29
62680;BME280;68213;40.528;44.712;2023-03-04T05:26:08;80213.69;;;3.52;66.97
62680;BME280;68213;40.528;44.712;2023-03-04T05:27:10;80265.28;;;3.65;67.57
62680;BME280;68213;40.528;44.712;2023-03-04T05:28:11;80255.72;;;3.68;67.56
62680;BME280;68213;40.528;44.712;2023-03-04T05:29:12;80258.31;;;3.68;66.95
62680;BME280;68213;40.528;44.712;2023-03-04T05:30:13;80260.53;;;3.71;66.57